Time;durP1;ratioP1;P1;durP2;ratioP2;P2;SDS_P1;SDS_P2;PMS_P1;PMS_P2;Temp;Humidity;BMP_temperature;BMP_pressure;BME280_temperature;BME280_humidity;BME280_pressure;Samples;Min_cycle;Max_cycle;Signal;HPM_P1;HPM_P2
2022/03/09 00:02:20;;;;;;;31.13;4.35;;;;;;;22.61;50.88;100278.75;7312686;19;129177;-39
2022/03/09 00:04:46;;;;;;;29.80;3.92;;;;;;;22.61;51.01;100276.94;7311744;19;130160;-41
2022/03/09 00:07:11;;;;;;;26.30;3.55;;;;;;;22.56;51.23;100275.66;7308129;19;159318;-41
2022/03/09 00:09:36;;;;;;;28.45;3.30;;;;;;;22.42;51.16;100281.19;7309879;19;154344;-38
2022/03/09 00:12:02;;;;;;;26.83;3.55;;;;;;;22.47;51.32;100289.50;7309500;19;154356;-41
2022/03/09 00:14:28;;;;;;;39.42;4.45;;;;;;;22.36;51.41;100292.19;7311871;19;130172;-42
2022/03/09 00:16:53;;;;;;;27.42;3.65;;;;;;;22.28;51.39;100284.16;7309273;19;129840;-40
2022/03/09 00:19:19;;;;;;;47.83;5.60;;;;;;;22.21;51.55;100285.59;7310819;19;154768;-41
2022/03/09 00:21:44;;;;;;;50.45;5.22;;;;;;;22.13;51.89;100288.84;7309701;19;154173;-40
2022/03/09 00:24:09;;;;;;;25.77;3.42;;;;;;;22.05;52.11;100282.59;7312877;19;130751;-42
2022/03/09 00:26:34;;;;;;;26.90;3.88;;;;;;;21.95;52.86;100279.88;7308620;19;158830;-40
2022/03/09 00:29:00;;;;;;;26.25;3.67;;;;;;;21.87;52.98;100280.50;7307270;19;135157;-41
2022/03/09 00:31:25;;;;;;;30.45;3.83;;;;;;;21.82;53.47;100280.06;7307700;19;143690;-40
2022/03/09 00:33:50;;;;;;;26.70;3.50;;;;;;;21.78;53.30;100281.25;7309670;19;150693;-41
2022/03/09 00:36:15;;;;;;;24.80;3.50;;;;;;;21.71;54.20;100274.84;7309997;19;143996;-41
2022/03/09 00:38:41;;;;;;;34.45;4.18;;;;;;;21.59;54.04;100269.75;7308197;19;154659;-40
2022/03/09 00:41:06;;;;;;;22.35;3.33;;;;;;;21.65;54.59;100291.00;7310255;19;154345;-40
2022/03/09 00:43:31;;;;;;;20.45;3.50;;;;;;;21.62;54.27;100286.03;7308013;19;158435;-41
2022/03/09 00:45:57;;;;;;;31.90;3.78;;;;;;;21.61;54.83;100287.00;7311128;19;129345;-41
2022/03/09 00:48:22;;;;;;;27.05;3.67;;;;;;;21.60;54.74;100287.13;7310099;19;132425;-41
2022/03/09 00:50:48;;;;;;;28.75;3.80;;;;;;;21.59;54.93;100283.66;7311313;19;128989;-44
2022/03/09 00:53:13;;;;;;;36.15;3.85;;;;;;;21.60;55.59;100287.13;7309965;19;158347;-40
2022/03/09 00:55:39;;;;;;;23.13;3.20;;;;;;;21.59;55.53;100285.44;7309054;19;157956;-41
2022/03/09 00:58:05;;;;;;;20.73;3.13;;;;;;;21.64;55.65;100288.53;7310098;19;129006;-42
2022/03/09 01:00:30;;;;;;;25.10;3.17;;;;;;;21.64;56.04;100289.34;7311476;19;129374;-41
2022/03/09 01:02:55;;;;;;;29.23;3.85;;;;;;;21.51;55.61;100272.97;7311533;19;130602;-42
2022/03/09 01:05:20;;;;;;;50.57;5.67;;;;;;;21.55;55.72;100295.31;7310507;19;161431;-41
2022/03/09 01:07:46;;;;;;;12.30;2.58;;;;;;;21.58;54.83;100287.25;7307434;19;154730;-39
2022/03/09 01:10:12;;;;;;;24.35;3.25;;;;;;;21.63;54.47;100282.47;7309629;19;154875;-42
2022/03/09 01:12:37;;;;;;;22.63;3.10;;;;;;;21.70;53.19;100269.72;7311176;19;130021;-41
2022/03/09 01:15:04;;;;;;;33.10;3.90;;;;;;;21.93;52.77;100282.63;7311656;19;130302;-41
2022/03/09 01:17:29;;;;;;;24.50;3.13;;;;;;;22.07;52.66;100276.25;7309366;19;129169;-41
2022/03/09 01:19:55;;;;;;;23.73;3.40;;;;;;;22.20;52.20;100276.91;7310681;19;129176;-41
2022/03/09 01:22:20;;;;;;;23.80;3.50;;;;;;;22.38;51.70;100277.19;7310032;19;159055;-42
2022/03/09 01:24:46;;;;;;;24.90;3.38;;;;;;;22.53;51.12;100274.13;7309336;19;130383;-41
2022/03/09 01:27:11;;;;;;;35.28;3.75;;;;;;;22.66;51.11;100272.13;7304934;19;148856;-41
2022/03/09 01:29:37;;;;;;;35.28;4.15;;;;;;;22.66;50.19;100252.97;7308998;19;128890;-39
2022/03/09 01:32:03;;;;;;;44.55;4.78;;;;;;;22.74;50.35;100261.81;7308594;19;130135;-40
2022/03/09 01:34:28;;;;;;;16.73;2.63;;;;;;;22.72;50.06;100269.00;7309130;19;130778;-42
2022/03/09 01:36:53;;;;;;;29.80;3.80;;;;;;;22.66;50.55;100263.44;7307606;19;154972;-40
2022/03/09 01:39:20;;;;;;;40.53;4.85;;;;;;;22.59;50.38;100268.34;7306507;19;153854;-40
2022/03/09 01:41:45;;;;;;;9.73;2.28;;;;;;;22.55;50.59;100261.72;7311117;19;130135;-41
2022/03/09 01:44:14;;;;;;;25.65;3.45;;;;;;;22.44;50.82;100264.41;7308154;19;129579;-41
2022/03/09 01:46:40;;;;;;;27.00;3.40;;;;;;;22.37;51.54;100265.03;7307966;19;130517;-40
2022/03/09 01:49:07;;;;;;;40.03;4.17;;;;;;;22.28;51.47;100268.44;7307635;19;129348;-40
2022/03/09 01:51:38;;;;;;;18.42;2.75;;;;;;;22.19;51.81;100258.69;7310503;19;130234;-41
2022/03/09 01:54:04;;;;;;;30.60;3.78;;;;;;;22.11;52.10;100266.38;7309213;19;130095;-41
2022/03/09 01:56:29;;;;;;;20.33;3.33;;;;;;;22.04;52.21;100270.44;7315942;19;129535;-42
2022/03/09 01:58:55;;;;;;;14.07;3.15;;;;;;;21.95;52.23;100264.16;7312941;19;129704;-42
2022/03/09 02:01:20;;;;;;;30.63;4.13;;;;;;;21.88;52.79;100271.69;7315267;19;134770;-40
2022/03/09 02:03:46;;;;;;;69.35;6.70;;;;;;;21.81;53.58;100274.94;7314004;19;130602;-41
2022/03/09 02:06:11;;;;;;;25.67;3.33;;;;;;;21.76;53.18;100271.84;7315242;19;129137;-41
2022/03/09 02:11:21;;;;;;;19.15;2.88;;;;;;;21.68;54.08;100261.16;7315149;19;130153;-41
2022/03/09 02:13:46;;;;;;;38.92;4.68;;;;;;;21.61;54.28;100258.22;7314058;19;145477;-39
2022/03/09 02:16:14;;;;;;;34.05;3.75;;;;;;;21.60;54.66;100264.38;7315901;19;131328;-41
2022/03/09 02:18:39;;;;;;;22.58;3.10;;;;;;;21.58;54.94;100263.69;7313964;19;129335;-42
2022/03/09 02:21:07;;;;;;;29.83;3.75;;;;;;;21.54;55.21;100254.41;7313737;19;155637;-40
2022/03/09 02:23:32;;;;;;;19.88;3.10;;;;;;;21.60;55.25;100261.75;7314719;19;130320;-40
2022/03/09 02:25:57;;;;;;;33.72;3.75;;;;;;;21.63;55.55;100264.16;7313256;19;154615;-41
2022/03/09 02:28:23;;;;;;;33.67;3.95;;;;;;;21.60;55.23;100264.38;7312491;19;128986;-41
2022/03/09 02:30:53;;;;;;;26.63;3.45;;;;;;;21.57;55.62;100262.00;7313161;19;157054;-42
2022/03/09 02:33:19;;;;;;;31.10;3.55;;;;;;;21.47;54.37;100255.84;7314577;19;130260;-40
2022/03/09 02:35:44;;;;;;;35.50;4.35;;;;;;;21.63;53.75;100265.94;7314322;19;129067;-42
2022/03/09 02:38:09;;;;;;;42.85;4.88;;;;;;;21.73;53.15;100262.44;7313988;19;129595;-40
2022/03/09 02:40:35;;;;;;;31.27;3.75;;;;;;;21.89;53.01;100268.13;7311170;19;158323;-39
2022/03/09 02:43:00;;;;;;;21.27;3.00;;;;;;;22.00;52.88;100261.19;7313409;19;160436;-42
2022/03/09 02:45:25;;;;;;;52.30;5.57;;;;;;;22.16;52.09;100253.72;7312442;19;154512;-40
2022/03/09 02:47:50;;;;;;;26.05;3.58;;;;;;;22.27;51.40;100256.28;7311325;19;155060;-42
2022/03/09 02:50:16;;;;;;;42.43;4.67;;;;;;;22.37;51.34;100246.69;7312656;19;158645;-39
2022/03/09 02:52:42;;;;;;;23.80;3.17;;;;;;;22.56;50.73;100252.09;7313971;19;158463;-40
2022/03/09 02:55:09;;;;;;;29.30;3.83;;;;;;;22.70;50.57;100256.97;7313456;19;128908;-40
2022/03/09 02:57:34;;;;;;;20.55;2.72;;;;;;;22.69;49.91;100247.47;7314195;19;129279;-41
2022/03/09 03:00:00;;;;;;;21.17;3.15;;;;;;;22.74;50.53;100261.00;7315469;19;131346;-41
2022/03/09 03:02:25;;;;;;;23.63;3.38;;;;;;;22.73;50.19;100260.16;7310309;19;159215;-42
2022/03/09 03:04:50;;;;;;;29.52;3.67;;;;;;;22.67;50.15;100259.84;7312725;19;155722;-40
2022/03/09 03:07:15;;;;;;;25.37;3.30;;;;;;;22.58;50.57;100256.22;7307966;19;154045;-42
2022/03/09 03:09:41;;;;;;;18.40;2.97;;;;;;;22.54;50.31;100261.88;7312111;19;158275;-41
2022/03/09 03:12:06;;;;;;;26.25;3.55;;;;;;;22.44;50.75;100258.31;7312740;19;158600;-40
2022/03/09 03:14:31;;;;;;;25.63;3.25;;;;;;;22.35;51.33;100253.84;7315570;19;129678;-41
2022/03/09 03:16:57;;;;;;;26.33;3.58;;;;;;;22.24;51.86;100256.53;7312731;19;148836;-41
2022/03/09 03:19:22;;;;;;;30.10;3.50;;;;;;;22.18;51.57;100251.81;7311523;19;159063;-41
2022/03/09 03:21:47;;;;;;;42.58;4.72;;;;;;;22.09;52.39;100252.56;7314279;19;130521;-41
2022/03/09 03:24:12;;;;;;;32.60;4.28;;;;;;;21.95;52.82;100246.69;7314986;19;129035;-40
2022/03/09 03:26:38;;;;;;;24.23;2.83;;;;;;;21.94;52.38;100250.25;7312380;19;135141;-42
2022/03/09 03:29:03;;;;;;;37.55;4.65;;;;;;;21.79;53.41;100246.28;7311467;19;144250;-41
2022/03/09 03:31:31;;;;;;;21.60;3.20;;;;;;;21.80;53.35;100247.09;7312764;19;158585;-41
2022/03/09 03:33:57;;;;;;;29.13;3.47;;;;;;;21.72;54.02;100250.31;7314843;19;129788;-41
2022/03/09 03:36:23;;;;;;;23.67;3.40;;;;;;;21.70;53.71;100259.25;7312836;19;131102;-40
2022/03/09 03:38:48;;;;;;;29.58;3.65;;;;;;;21.66;54.37;100257.84;7309673;19;129222;-40
2022/03/09 03:41:13;;;;;;;25.75;3.08;;;;;;;21.63;54.64;100255.47;7312776;19;158874;-40
2022/03/09 03:43:39;;;;;;;20.50;2.95;;;;;;;21.61;54.50;100255.59;7311710;19;129104;-40
2022/03/09 03:46:04;;;;;;;24.48;3.35;;;;;;;21.63;53.53;100256.31;7311526;19;154009;-41
2022/03/09 03:48:30;;;;;;;18.88;2.92;;;;;;;21.70;53.17;100256.66;7308324;19;158435;-40
2022/03/09 03:50:55;;;;;;;17.17;2.72;;;;;;;21.86;52.85;100247.44;7312901;19;129117;-40
2022/03/09 03:53:20;;;;;;;29.75;3.45;;;;;;;22.02;52.13;100254.03;7313450;19;129113;-42
2022/03/09 03:55:46;;;;;;;32.35;3.83;;;;;;;22.24;51.65;100241.66;7312516;19;153382;-41
2022/03/09 03:58:11;;;;;;;24.58;3.25;;;;;;;22.52;51.09;100241.00;7311904;19;131411;-42
2022/03/09 04:00:37;;;;;;;6.05;1.90;;;;;;;22.81;49.96;100241.97;7313866;19;130249;-41
2022/03/09 04:03:02;;;;;;;27.27;3.72;;;;;;;23.04;49.76;100242.63;7313788;19;129081;-41
2022/03/09 04:05:29;;;;;;;62.10;6.68;;;;;;;23.23;48.75;100242.69;7310840;19;154520;-38
2022/03/09 04:07:54;;;;;;;26.58;3.50;;;;;;;23.39;48.41;100243.00;7306752;19;130242;-40
2022/03/09 04:10:19;;;;;;;33.43;3.93;;;;;;;23.50;48.13;100244.72;7311884;19;129594;-41
2022/03/09 04:12:45;;;;;;;15.40;2.87;;;;;;;23.63;47.50;100232.97;7310494;19;154605;-41
2022/03/09 04:15:10;;;;;;;24.98;3.15;;;;;;;23.75;47.29;100229.22;7310709;19;154788;-39
2022/03/09 04:17:43;;;;;;;24.23;3.08;;;;;;;23.84;47.05;100231.03;7307849;19;149168;-42
2022/03/09 04:20:10;;;;;;;26.13;3.45;;;;;;;23.86;47.45;100223.88;7311417;19;129797;-40
2022/03/09 04:22:36;;;;;;;40.90;4.28;;;;;;;23.97;47.14;100234.22;7312236;19;129790;-40
2022/03/09 04:25:02;;;;;;;24.65;3.35;;;;;;;24.08;46.64;100235.91;7311330;19;128876;-41
2022/03/09 04:27:28;;;;;;;25.80;3.35;;;;;;;24.20;46.91;100240.84;7309178;19;130625;-41
2022/03/09 04:29:53;;;;;;;24.67;3.25;;;;;;;24.27;46.24;100247.22;7311544;19;129265;-41
2022/03/09 04:32:18;;;;;;;21.52;3.15;;;;;;;24.30;46.25;100249.56;7310877;19;154732;-40
2022/03/09 04:34:43;;;;;;;18.17;2.67;;;;;;;24.36;46.50;100246.34;7309523;19;129095;-41
2022/03/09 04:37:09;;;;;;;35.73;4.10;;;;;;;24.40;45.92;100250.38;7308793;19;159041;-40
2022/03/09 04:39:34;;;;;;;48.03;4.82;;;;;;;24.39;45.62;100235.53;7307167;19;159356;-40
2022/03/09 04:41:59;;;;;;;19.20;2.80;;;;;;;24.51;45.39;100240.66;7310706;19;153332;-41
2022/03/09 04:44:24;;;;;;;33.85;3.88;;;;;;;24.62;45.02;100243.09;7311142;19;129441;-41
2022/03/09 04:46:50;;;;;;;27.20;3.63;;;;;;;24.66;45.51;100236.59;7310236;19;130219;-41
2022/03/09 04:49:15;;;;;;;22.40;3.33;;;;;;;24.70;44.86;100235.34;7309761;19;130564;-40
2022/03/09 04:51:40;;;;;;;26.67;3.63;;;;;;;24.69;45.26;100239.81;7311978;19;129188;-41
2022/03/09 04:54:06;;;;;;;45.33;4.70;;;;;;;24.72;44.85;100236.03;7310150;19;154349;-40
2022/03/09 04:56:31;;;;;;;32.72;3.75;;;;;;;24.61;45.73;100241.47;7308909;19;159324;-39
2022/03/09 04:58:56;;;;;;;27.27;4.07;;;;;;;24.44;45.74;100249.09;7306027;19;159044;-42
2022/03/09 05:01:22;;;;;;;29.10;3.28;;;;;;;24.33;46.41;100258.94;7308655;19;128871;-41
2022/03/09 05:03:47;;;;;;;35.10;4.10;;;;;;;24.19;46.47;100260.22;7309964;19;129339;-41
2022/03/09 05:06:13;;;;;;;36.22;4.20;;;;;;;23.96;46.94;100261.47;7308657;19;155061;-41
2022/03/09 05:08:38;;;;;;;22.63;3.07;;;;;;;23.91;46.91;100276.81;7307188;19;130364;-40
2022/03/09 05:11:03;;;;;;;25.93;3.57;;;;;;;23.74;47.34;100263.50;7311819;19;129299;-39
2022/03/09 05:13:29;;;;;;;35.65;4.05;;;;;;;23.62;48.20;100268.06;7308059;19;154977;-41
2022/03/09 05:15:54;;;;;;;25.38;3.58;;;;;;;23.45;48.16;100270.53;7307685;19;145751;-40
2022/03/09 05:18:19;;;;;;;27.00;3.70;;;;;;;23.34;48.58;100274.09;7308599;19;130379;-41
2022/03/09 05:20:47;;;;;;;31.97;3.87;;;;;;;23.21;48.39;100279.56;7308704;19;156257;-41
2022/03/09 05:23:12;;;;;;;43.03;4.93;;;;;;;23.13;49.04;100278.56;7310993;19;129036;-42
2022/03/09 05:25:37;;;;;;;18.50;2.75;;;;;;;23.09;48.79;100288.47;7307416;19;157365;-41
2022/03/09 05:28:03;;;;;;;36.85;4.55;;;;;;;23.07;48.67;100281.72;7306969;19;144339;-40
2022/03/09 05:30:28;;;;;;;24.60;3.33;;;;;;;23.07;48.78;100287.75;7315049;19;129140;-39
2022/03/09 05:32:53;;;;;;;18.67;2.95;;;;;;;23.10;48.77;100290.16;7315713;19;129211;-40
2022/03/09 05:35:19;;;;;;;61.70;6.40;;;;;;;23.19;48.73;100299.84;7314448;19;145283;-42
2022/03/09 05:37:45;;;;;;;45.47;5.23;;;;;;;23.27;48.16;100301.00;7311331;19;158745;-40
2022/03/09 05:40:11;;;;;;;35.07;4.10;;;;;;;23.30;48.19;100306.81;7316508;19;129873;-41
2022/03/09 05:42:37;;;;;;;21.30;3.30;;;;;;;23.33;48.33;100306.53;7317053;19;130854;-40
2022/03/09 05:45:03;;;;;;;19.60;3.28;;;;;;;23.39;48.22;100300.75;7315100;19;129562;-39
2022/03/09 05:47:29;;;;;;;41.13;4.15;;;;;;;23.45;47.75;100308.09;7310852;19;131289;-40
2022/03/09 05:49:54;;;;;;;23.10;2.92;;;;;;;23.43;47.99;100309.19;7315294;19;128885;-42
2022/03/09 05:52:20;;;;;;;54.47;5.97;;;;;;;23.39;47.65;100310.44;7314407;19;154086;-42
2022/03/09 05:54:45;;;;;;;39.95;4.82;;;;;;;23.34;47.76;100317.88;7312846;19;158287;-40
2022/03/09 05:57:18;;;;;;;34.47;4.25;;;;;;;23.23;47.98;100316.13;7315092;19;130447;-42
2022/03/09 05:59:43;;;;;;;37.13;4.78;;;;;;;23.18;48.31;100313.09;7314646;19;129941;-39
2022/03/09 06:02:08;;;;;;;32.72;4.53;;;;;;;23.07;48.20;100305.31;7313960;19;154037;-41
2022/03/09 06:04:34;;;;;;;29.95;4.07;;;;;;;22.97;48.48;100305.25;7313657;19;157935;-39
2022/03/09 06:07:01;;;;;;;26.77;3.83;;;;;;;22.88;48.70;100302.59;7312295;19;146977;-39
2022/03/09 06:09:27;;;;;;;29.27;4.20;;;;;;;22.87;48.58;100311.44;7312904;19;130565;-42
2022/03/09 06:11:52;;;;;;;43.60;5.45;;;;;;;22.80;49.12;100312.91;7315965;19;129470;-41
2022/03/09 06:14:17;;;;;;;53.47;5.57;;;;;;;22.81;49.20;100317.19;7313264;19;158346;-42
2022/03/09 06:16:43;;;;;;;34.15;5.13;;;;;;;22.78;48.15;100314.81;7312854;19;160704;-41
2022/03/09 06:19:08;;;;;;;16.80;3.50;;;;;;;22.88;48.06;100321.78;7313925;19;154197;-40
2022/03/09 06:21:33;;;;;;;35.08;4.72;;;;;;;22.99;48.85;100328.75;7313917;19;138156;-42
2022/03/09 06:23:58;;;;;;;34.43;4.67;;;;;;;23.13;48.62;100331.00;7314652;19;130124;-41
2022/03/09 06:26:24;;;;;;;25.17;3.88;;;;;;;23.18;48.46;100336.69;7312665;19;159917;-41
2022/03/09 06:28:49;;;;;;;54.07;6.40;;;;;;;23.25;48.11;100336.03;7308602;19;154736;-42
2022/03/09 06:31:14;;;;;;;33.05;4.78;;;;;;;23.36;48.08;100331.66;7313303;19;140909;-41
2022/03/09 06:33:40;;;;;;;46.88;5.40;;;;;;;23.36;48.47;100337.75;7310668;19;158659;-42
2022/03/09 06:36:06;;;;;;;47.70;5.53;;;;;;;23.40;48.21;100333.91;7310599;19;158832;-42
2022/03/09 06:38:32;;;;;;;22.10;3.67;;;;;;;23.44;48.33;100343.16;7313453;19;129696;-42
2022/03/09 06:40:58;;;;;;;32.43;4.13;;;;;;;23.43;48.35;100333.66;7313357;19;129173;-41
2022/03/09 06:43:23;;;;;;;28.97;3.90;;;;;;;23.36;48.43;100337.75;7314135;19;132968;-41
2022/03/09 06:45:48;;;;;;;33.10;4.30;;;;;;;23.29;48.30;100339.25;7311781;19;145032;-42
2022/03/09 06:48:13;;;;;;;29.50;4.17;;;;;;;23.19;48.98;100348.84;7310652;19;155033;-42
2022/03/09 06:50:39;;;;;;;40.67;4.72;;;;;;;23.15;49.33;100357.94;7313298;19;145496;-41
2022/03/09 06:53:05;;;;;;;22.15;3.55;;;;;;;23.04;49.08;100363.25;7314435;19;130080;-42
2022/03/09 06:55:30;;;;;;;48.47;5.82;;;;;;;22.93;49.91;100352.84;7312934;19;130938;-41
2022/03/09 06:57:56;;;;;;;156.30;15.57;;;;;;;22.73;45.95;100345.84;7283635;19;155125;-40
2022/03/09 07:00:21;;;;;;;36.55;5.50;;;;;;;22.63;45.71;100352.81;7254110;19;154877;-40
2022/03/09 07:02:47;;;;;;;42.00;6.10;;;;;;;22.74;46.88;100348.31;7311063;19;131672;-41
2022/03/09 07:05:13;;;;;;;42.58;5.30;;;;;;;22.78;47.01;100351.53;7312075;19;129831;-40
2022/03/09 07:07:39;;;;;;;35.60;5.10;;;;;;;22.87;47.95;100353.38;7310764;19;129377;-42
2022/03/09 07:10:10;;;;;;;52.27;6.50;;;;;;;22.95;48.69;100348.31;7309001;19;131785;-41
2022/03/09 07:12:35;;;;;;;46.88;6.00;;;;;;;23.02;48.25;100349.47;7312099;19;130338;-42
2022/03/09 07:15:01;;;;;;;36.10;4.47;;;;;;;23.20;47.91;100353.94;7312852;19;129468;-41
2022/03/09 07:17:26;;;;;;;36.87;4.93;;;;;;;23.31;47.77;100366.19;7308846;19;153946;-40
2022/03/09 07:19:51;;;;;;;38.45;5.18;;;;;;;23.45;48.36;100363.22;7311135;19;154693;-41
2022/03/09 07:22:17;;;;;;;27.27;4.13;;;;;;;23.52;47.56;100369.56;7314061;19;137500;-40
2022/03/09 07:24:42;;;;;;;33.45;4.85;;;;;;;23.59;48.21;100372.50;7312624;19;130357;-40
2022/03/09 07:27:07;;;;;;;34.38;4.70;;;;;;;23.65;47.63;100367.53;7310194;19;154752;-41
2022/03/09 07:29:33;;;;;;;25.33;4.38;;;;;;;23.59;48.30;100370.72;7312774;19;129169;-41
2022/03/09 07:31:58;;;;;;;32.78;4.72;;;;;;;23.56;48.42;100370.97;7311401;19;159250;-42
2022/03/09 07:34:23;;;;;;;31.97;4.77;;;;;;;23.54;48.35;100370.28;7309302;19;130835;-40
2022/03/09 07:36:49;;;;;;;48.72;5.85;;;;;;;23.46;49.40;100370.13;7309825;19;128865;-40
2022/03/09 07:39:15;;;;;;;37.37;5.23;;;;;;;23.41;49.16;100372.31;7312199;19;128917;-41
2022/03/09 07:41:41;;;;;;;39.50;5.20;;;;;;;23.34;49.79;100371.16;7311870;19;130797;-39
2022/03/09 07:44:06;;;;;;;30.58;3.83;;;;;;;23.25;49.78;100371.94;7313296;19;130289;-40
2022/03/09 07:46:32;;;;;;;34.75;4.57;;;;;;;23.15;49.83;100381.56;7308677;19;128951;-41
2022/03/09 07:48:57;;;;;;;44.43;5.17;;;;;;;23.10;50.21;100378.50;7305765;19;154257;-40
2022/03/09 07:51:22;;;;;;;36.30;4.68;;;;;;;23.01;51.05;100368.75;7311805;19;130188;-41
2022/03/09 07:53:47;;;;;;;32.70;4.40;;;;;;;22.96;50.88;100376.19;7311051;19;145870;-41
2022/03/09 07:56:13;;;;;;;34.90;4.60;;;;;;;22.89;51.26;100377.69;7310164;19;129746;-42
2022/03/09 07:58:38;;;;;;;25.13;4.35;;;;;;;22.81;51.61;100367.00;7309889;19;129295;-41
2022/03/09 08:01:04;;;;;;;26.20;3.83;;;;;;;22.76;51.84;100363.91;7311311;19;159021;-38
2022/03/09 08:03:29;;;;;;;30.93;4.30;;;;;;;22.75;52.01;100375.38;7309204;19;131039;-40
2022/03/09 08:05:55;;;;;;;29.55;3.83;;;;;;;22.83;51.96;100370.31;7308268;19;154486;-41
2022/03/09 08:08:20;;;;;;;27.17;4.00;;;;;;;22.87;52.30;100377.78;7308008;19;154432;-41
2022/03/09 08:10:45;;;;;;;29.55;4.63;;;;;;;22.81;51.57;100356.50;7309537;19;159611;-40
2022/03/09 08:13:10;;;;;;;23.17;3.53;;;;;;;23.00;51.90;100377.59;7310143;19;157781;-42
2022/03/09 08:15:37;;;;;;;29.75;3.88;;;;;;;22.99;51.38;100378.59;7307346;19;153983;-41
2022/03/09 08:18:03;;;;;;;43.88;5.18;;;;;;;22.98;52.02;100377.75;7308159;19;131057;-39
2022/03/09 08:20:28;;;;;;;29.73;3.72;;;;;;;22.98;51.69;100384.75;7312022;19;130244;-41
2022/03/09 08:22:53;;;;;;;56.15;6.43;;;;;;;22.88;51.53;100379.47;7307735;19;129823;-40
2022/03/09 08:25:19;;;;;;;65.38;8.05;;;;;;;23.00;52.05;100388.09;7306231;19;151681;-42
2022/03/09 08:27:44;;;;;;;25.50;3.53;;;;;;;22.97;52.11;100380.50;7308920;19;128853;-40
2022/03/09 08:30:10;;;;;;;29.88;4.30;;;;;;;22.94;52.13;100381.56;7311323;19;130232;-41
2022/03/09 08:32:35;;;;;;;31.55;4.35;;;;;;;22.86;52.42;100363.03;7301299;19;130856;-41
2022/03/09 08:35:00;;;;;;;48.30;5.53;;;;;;;22.91;52.42;100373.97;7307325;19;130429;-41
2022/03/09 08:37:26;;;;;;;38.17;4.50;;;;;;;22.86;52.51;100370.06;7305141;19;153876;-43
2022/03/09 08:39:51;;;;;;;29.30;3.78;;;;;;;22.85;52.23;100384.13;7305214;19;158855;-41
2022/03/09 08:42:16;;;;;;;36.00;4.60;;;;;;;22.79;52.41;100382.03;7307961;19;158701;-40
2022/03/09 08:44:42;;;;;;;22.67;3.63;;;;;;;22.81;53.07;100387.97;7307506;19;154464;-41
2022/03/09 08:47:07;;;;;;;44.58;5.13;;;;;;;22.74;52.99;100386.84;7305535;19;129233;-40
2022/03/09 08:49:33;;;;;;;30.60;3.77;;;;;;;22.73;53.47;100385.16;7308777;19;130110;-41
2022/03/09 08:51:59;;;;;;;33.17;3.93;;;;;;;22.74;53.50;100389.47;7309164;19;130400;-41
2022/03/09 08:54:24;;;;;;;37.40;4.32;;;;;;;22.59;53.45;100373.19;7307800;19;129662;-42
2022/03/09 08:56:49;;;;;;;43.53;5.00;;;;;;;22.67;53.35;100385.69;7303459;19;153966;-39
2022/03/09 08:59:14;;;;;;;42.42;5.25;;;;;;;22.47;50.01;100381.22;7305266;19;157302;-41
2022/03/09 09:01:40;;;;;;;40.85;5.80;;;;;;;22.39;48.54;100391.50;7305754;19;158675;-41
2022/03/09 09:04:05;;;;;;;58.53;6.20;;;;;;;22.34;49.54;100391.03;7307808;19;129785;-39
2022/03/09 09:06:30;;;;;;;23.00;3.67;;;;;;;22.33;50.50;100392.00;7312015;19;147623;-41
2022/03/09 09:08:55;;;;;;;36.80;4.82;;;;;;;22.31;50.87;100389.50;7308872;19;159053;-41
2022/03/09 09:11:21;;;;;;;37.80;4.80;;;;;;;22.37;50.63;100382.91;7314840;19;130632;-41
2022/03/09 09:13:46;;;;;;;40.45;5.28;;;;;;;22.46;50.59;100379.56;7314205;19;148173;-42
2022/03/09 09:16:12;;;;;;;39.10;4.70;;;;;;;22.62;50.43;100388.69;7313521;19;131401;-41
2022/03/09 09:18:38;;;;;;;28.13;4.27;;;;;;;22.68;50.56;100369.81;7310777;19;130709;-40
2022/03/09 09:21:04;;;;;;;28.40;4.00;;;;;;;22.99;49.84;100381.19;7314344;19;132495;-40
2022/03/09 09:23:29;;;;;;;29.77;4.28;;;;;;;23.15;49.93;100371.06;7313630;19;129432;-41
2022/03/09 09:25:54;;;;;;;32.75;4.45;;;;;;;23.23;50.00;100373.84;7311725;19;147364;-40
2022/03/09 09:28:19;;;;;;;46.67;5.63;;;;;;;23.15;49.55;100360.56;7309456;19;158419;-41
2022/03/09 09:30:45;;;;;;;62.92;6.47;;;;;;;23.28;49.76;100371.72;7311794;19;129796;-41
2022/03/09 09:33:10;;;;;;;44.13;5.30;;;;;;;23.27;49.58;100370.03;7313055;19;129480;-40
2022/03/09 09:35:36;;;;;;;50.53;5.53;;;;;;;23.27;50.34;100372.66;7310421;19;154186;-41
2022/03/09 09:38:06;;;;;;;61.03;6.57;;;;;;;23.12;50.62;100366.91;7310398;19;130608;-40
2022/03/09 09:40:34;;;;;;;26.48;3.83;;;;;;;23.12;50.35;100366.09;7313539;19;131520;-41
2022/03/09 09:43:01;;;;;;;42.22;5.22;;;;;;;23.09;50.93;100366.31;7314091;19;129181;-41
2022/03/09 09:45:26;;;;;;;79.75;8.30;;;;;;;22.98;51.65;100366.41;7313352;19;129060;-41
2022/03/09 09:47:51;;;;;;;32.50;4.35;;;;;;;22.90;51.66;100361.00;7308732;19;158463;-40
2022/03/09 09:50:17;;;;;;;24.10;3.70;;;;;;;22.89;52.17;100365.38;7310143;19;159449;-40
2022/03/09 09:52:44;;;;;;;33.03;4.18;;;;;;;22.83;52.24;100360.66;7313919;19;128975;-42
2022/03/09 09:55:09;;;;;;;45.35;5.50;;;;;;;22.79;52.19;100363.69;7312507;19;129213;-39
2022/03/09 09:57:35;;;;;;;31.60;4.25;;;;;;;22.78;52.24;100357.59;7311765;19;129405;-40
2022/03/09 10:00:02;;;;;;;26.73;3.70;;;;;;;22.70;53.03;100359.19;7313971;19;130535;-42
2022/03/09 10:02:27;;;;;;;22.40;3.28;;;;;;;22.68;53.30;100350.63;7313317;19;130111;-41
2022/03/09 10:04:53;;;;;;;30.97;3.83;;;;;;;22.60;52.90;100353.91;7312692;19;155153;-40
2022/03/09 10:07:18;;;;;;;60.78;6.20;;;;;;;22.63;53.85;100358.03;7308671;19;151776;-41
2022/03/09 10:09:44;;;;;;;25.10;3.95;;;;;;;22.58;53.03;100347.13;7312178;19;129897;-40
2022/03/09 10:12:13;;;;;;;46.53;5.07;;;;;;;22.56;53.36;100351.69;7313147;19;129197;-40
2022/03/09 10:14:48;;;;;;;29.15;3.78;;;;;;;22.61;54.27;100350.31;7312762;19;129002;-41
2022/03/09 10:17:34;;;;;;;33.65;4.20;;;;;;;22.70;53.90;100341.69;7310858;19;131148;-41
2022/03/09 10:20:11;;;;;;;39.13;4.18;;;;;;;22.78;52.87;100348.91;7311892;19;130389;-40
2022/03/09 10:22:41;;;;;;;33.58;3.80;;;;;;;22.84;53.38;100351.84;7313195;19;129983;-42
2022/03/09 10:25:09;;;;;;;43.67;4.70;;;;;;;22.89;53.16;100348.84;7313404;19;129568;-39
2022/03/09 10:27:38;;;;;;;26.65;3.10;;;;;;;22.89;53.64;100347.03;7309351;19;159400;-41
2022/03/09 10:30:15;;;;;;;40.15;4.25;;;;;;;22.90;52.91;100356.59;7311635;19;130464;-41
2022/03/09 10:32:54;;;;;;;30.02;3.40;;;;;;;22.88;53.11;100352.41;7313222;19;128991;-42
2022/03/09 10:35:27;;;;;;;74.00;7.10;;;;;;;22.87;53.28;100342.91;7310941;19;129476;-41
2022/03/09 10:37:52;;;;;;;33.67;3.85;;;;;;;22.84;52.94;100351.03;7309578;19;131184;-39
2022/03/09 10:40:21;;;;;;;31.50;3.80;;;;;;;22.88;53.23;100348.00;7311088;19;129281;-41
2022/03/09 10:42:48;;;;;;;26.70;3.38;;;;;;;22.84;53.97;100349.22;7313090;19;128906;-40
2022/03/09 10:45:17;;;;;;;;;;;;;;;22.58;54.75;100350.56;7309507;19;129082;-40
2022/03/09 10:47:45;;;;;;;39.45;4.22;;;;;;;22.57;53.85;100359.41;7310099;19;130795;-41
2022/03/09 10:50:15;;;;;;;50.08;5.35;;;;;;;22.54;54.49;100354.44;7310153;19;129941;-40
2022/03/09 10:52:47;;;;;;;34.63;4.07;;;;;;;22.64;54.06;100344.00;7312394;19;129626;-42
2022/03/09 10:55:32;;;;;;;36.10;4.45;;;;;;;22.82;53.66;100347.69;7313122;19;129027;-41
2022/03/09 10:58:09;;;;;;;44.90;4.55;;;;;;;22.97;52.66;100356.88;7310069;19;130367;-41
2022/03/09 11:00:46;;;;;;;24.10;3.60;;;;;;;23.02;52.90;100344.22;7311387;19;131697;-40
2022/03/09 11:03:23;;;;;;;33.27;3.77;;;;;;;22.98;52.92;100343.66;7309826;19;129468;-39
2022/03/09 11:05:54;;;;;;;40.90;4.43;;;;;;;22.99;52.73;100339.25;7310397;19;130450;-41
2022/03/09 11:08:28;;;;;;;87.13;7.60;;;;;;;22.95;53.21;100336.03;7305170;19;131168;-39